Huvudsida
METAR-TAF:

METAR-TAF

Flygplatser :

Kastrups flygplats

Köpenhamn, Danmark

latitud: 55-37N, longitud: 012-39E, höjd: 5 m

Aktuellt väderrapport

Denna rapport gjordes för 13 minuter sedan, klockan 19:20 UTC
Vind 5 kt från nord, varierande mellan nord/nordväst och ost
Temperatur 19°C
Fuktighet 78%
Tryck 1019 hPa
Sikt 10 km eller mer
Inga moln under 1 500 m eller inga cumulonimbus

METAR: EKCH 251920Z 01005KT 330V080 CAVOK 19/15 Q1019 NOSIG

Tid: 21:33 (19:33 UTC)

Väderprognos

Denna rapport gjordes för 2 timmar och 40 minuter sedan, klockan 16:53 UTC
Prognos gäller från 25 kl. 18 UTC till 26 kl. 18 UTC
Vind 2 kt varierande vindriktning
Sikt 10 km eller mer
Få moln på en höjd av 3500 ft
Blir
från 26 kl. 11 UTC till 26 kl. 13 UTC
Vind 12 kt från syd/sydost

TAF: EKCH 251653Z 2518/2618 VRB02KT 9999 FEW035 BECMG 2611/2613 16012KT

Aktuella väderrapporter och prognoser från 4000 flygplatser (METAR- och TAF-rapporter).

De tillgängliga stationerna syns som gula och röda prickar på kartan.

För musen över prickarna för att se namnen på stationerna.

Klicka sedan för att få väderrapporter och prognoser.

För att ändra kartan: Klicka på de gröna knapparna med ett svart kors på för att zooma in; den gröna knappen med ett streck på för att zooma ut; eller på de gröna pilarna för angränsande kartor.


METAR-TAF: